createdAt,value
2023-04-20T00:01:04.898Z,99.90
2023-04-20T00:03:33.011Z,99.90
2023-04-20T00:06:03.215Z,99.90
2023-04-20T00:08:30.055Z,99.90
2023-04-20T00:10:56.784Z,99.90
2023-04-20T00:13:23.562Z,99.90
2023-04-20T00:15:50.481Z,99.90
2023-04-20T00:18:17.235Z,99.90
2023-04-20T00:20:43.993Z,99.90
2023-04-20T00:23:11.374Z,99.90
2023-04-20T00:25:38.276Z,99.90
2023-04-20T00:28:05.866Z,99.90
2023-04-20T00:30:32.681Z,99.90
2023-04-20T00:32:59.716Z,99.90
2023-04-20T00:35:26.574Z,99.90
2023-04-20T00:37:53.360Z,99.90
2023-04-20T00:40:20.660Z,99.90
2023-04-20T00:42:47.540Z,99.90
2023-04-20T00:45:14.359Z,99.90
2023-04-20T00:47:41.185Z,99.90
2023-04-20T00:50:08.819Z,99.90
2023-04-20T00:52:35.765Z,99.90
2023-04-20T00:55:04.385Z,99.90
2023-04-20T00:57:32.525Z,99.90
2023-04-20T00:59:59.481Z,99.90
2023-04-20T01:02:27.676Z,99.90
2023-04-20T01:04:54.696Z,99.90
2023-04-20T01:07:21.445Z,99.90
2023-04-20T01:09:48.138Z,99.90
2023-04-20T01:12:14.890Z,99.90
2023-04-20T01:14:41.910Z,99.90
2023-04-20T01:17:09.695Z,99.90
2023-04-20T01:19:36.440Z,99.90
2023-04-20T01:22:03.242Z,99.90
2023-04-20T01:24:30.231Z,99.90
2023-04-20T01:26:57.640Z,99.90
2023-04-20T01:29:24.432Z,99.90
2023-04-20T01:31:51.836Z,99.90
2023-04-20T01:34:18.620Z,99.90
2023-04-20T01:36:45.851Z,99.90
2023-04-20T01:39:12.741Z,99.90
2023-04-20T01:41:40.635Z,99.90
2023-04-20T01:44:07.767Z,99.90
2023-04-20T01:46:38.698Z,99.90
2023-04-20T01:49:06.226Z,99.90
2023-04-20T01:51:34.940Z,99.90
2023-04-20T01:54:02.658Z,99.90
2023-04-20T01:56:30.007Z,99.90
2023-04-20T01:58:56.734Z,99.90
2023-04-20T02:01:29.597Z,99.90
2023-04-20T02:03:56.398Z,99.90
2023-04-20T02:06:23.204Z,99.90
2023-04-20T02:08:50.088Z,99.90
2023-04-20T02:11:16.863Z,99.90
2023-04-20T02:13:43.715Z,99.90
2023-04-20T02:16:10.834Z,99.90
2023-04-20T02:18:37.583Z,99.90
2023-04-20T02:21:06.648Z,99.90
2023-04-20T02:23:33.330Z,99.90
2023-04-20T02:26:00.150Z,99.90
2023-04-20T02:28:26.842Z,99.90
2023-04-20T02:30:53.661Z,99.90
2023-04-20T02:33:21.877Z,99.90
2023-04-20T02:35:48.977Z,99.90
2023-04-20T02:38:15.975Z,99.90
2023-04-20T02:40:42.793Z,99.90
2023-04-20T02:43:09.711Z,99.90
2023-04-20T02:45:37.016Z,99.90
2023-04-20T02:48:04.126Z,99.90
2023-04-20T02:50:31.154Z,99.90
2023-04-20T02:52:58.246Z,99.90
2023-04-20T02:55:25.010Z,99.90
2023-04-20T02:57:51.695Z,99.90
2023-04-20T03:00:19.130Z,99.90
2023-04-20T03:02:47.006Z,99.90
2023-04-20T03:05:14.079Z,99.90
2023-04-20T03:07:41.008Z,99.90
2023-04-20T03:10:08.584Z,99.90
2023-04-20T03:12:36.162Z,99.90
2023-04-20T03:15:06.342Z,99.90
2023-04-20T03:17:33.072Z,99.90
2023-04-20T03:20:00.283Z,99.90
2023-04-20T03:22:27.117Z,99.90
2023-04-20T03:24:54.095Z,99.90
2023-04-20T03:27:21.021Z,99.90
2023-04-20T03:29:48.926Z,99.90
2023-04-20T03:32:15.797Z,99.90
2023-04-20T03:34:42.995Z,99.90
2023-04-20T03:37:09.816Z,99.90
2023-04-20T03:39:36.598Z,99.90
2023-04-20T03:42:06.380Z,99.90
2023-04-20T03:44:33.271Z,99.90
2023-04-20T03:46:59.993Z,99.90
2023-04-20T03:49:29.639Z,99.90
2023-04-20T03:51:56.508Z,99.90
2023-04-20T03:54:23.250Z,99.90
2023-04-20T03:56:50.538Z,99.90
2023-04-20T03:59:17.784Z,99.90
2023-04-20T04:01:44.819Z,99.90
2023-04-20T04:04:11.879Z,99.90
2023-04-20T04:06:39.060Z,99.90
2023-04-20T04:09:06.120Z,99.90
2023-04-20T04:11:33.062Z,99.90
2023-04-20T04:13:59.952Z,99.90
2023-04-20T04:16:26.852Z,99.90
2023-04-20T04:18:53.860Z,99.90
2023-04-20T04:21:21.115Z,99.90
2023-04-20T04:23:48.799Z,99.90
2023-04-20T04:26:15.733Z,99.90
2023-04-20T04:28:42.670Z,99.90
2023-04-20T04:31:09.908Z,99.90
2023-04-20T04:33:36.899Z,99.90
2023-04-20T04:36:04.643Z,99.90
2023-04-20T04:38:33.567Z,99.90
2023-04-20T04:41:00.858Z,99.90
2023-04-20T04:43:27.664Z,99.90
2023-04-20T04:45:55.648Z,99.90
2023-04-20T04:48:23.260Z,99.90
2023-04-20T04:50:50.276Z,99.90
2023-04-20T04:53:17.500Z,99.90
2023-04-20T04:55:44.404Z,99.90
2023-04-20T04:58:11.578Z,99.90
2023-04-20T05:00:38.400Z,99.90
2023-04-20T05:03:06.147Z,99.90
2023-04-20T05:05:33.507Z,99.90
2023-04-20T05:08:00.550Z,99.90
2023-04-20T05:10:27.862Z,99.90
2023-04-20T05:12:54.859Z,99.90
2023-04-20T05:15:22.639Z,99.90
2023-04-20T05:17:50.251Z,99.90
2023-04-20T05:20:17.371Z,99.90
2023-04-20T05:22:44.311Z,99.90
2023-04-20T05:25:14.653Z,99.90
2023-04-20T05:28:01.980Z,99.90
2023-04-20T05:30:29.311Z,99.90
2023-04-20T05:32:56.575Z,99.90
2023-04-20T05:35:23.479Z,99.90
2023-04-20T05:37:53.275Z,99.90
2023-04-20T05:40:20.114Z,99.90
2023-04-20T05:42:47.024Z,99.90
2023-04-20T05:45:17.055Z,99.90
2023-04-20T05:47:56.425Z,99.90
2023-04-20T05:50:24.723Z,99.90
2023-04-20T05:52:54.527Z,99.90
2023-04-20T05:55:22.902Z,99.90
2023-04-20T05:57:51.854Z,99.90
2023-04-20T06:00:26.282Z,99.90
2023-04-20T06:02:55.048Z,99.90
2023-04-20T06:05:22.476Z,99.90
2023-04-20T06:07:49.791Z,99.90
2023-04-20T06:10:16.761Z,99.90
2023-04-20T06:12:43.680Z,99.90
2023-04-20T06:15:11.053Z,99.90
2023-04-20T06:17:41.135Z,99.90
2023-04-20T06:20:09.894Z,99.90
2023-04-20T06:22:41.752Z,99.90
2023-04-20T06:25:09.021Z,99.90
2023-04-20T06:27:43.517Z,99.90
2023-04-20T06:30:11.083Z,99.90
2023-04-20T06:32:38.186Z,99.90
2023-04-20T06:35:06.766Z,99.90
2023-04-20T06:37:34.841Z,99.90
2023-04-20T06:40:01.649Z,99.90
2023-04-20T06:42:28.699Z,99.90
2023-04-20T06:44:56.384Z,99.90
2023-04-20T06:47:23.285Z,99.90
2023-04-20T06:49:50.108Z,99.90
2023-04-20T06:52:16.992Z,99.90
2023-04-20T06:54:43.945Z,99.90
2023-04-20T06:57:10.764Z,99.90
2023-04-20T06:59:37.560Z,99.90
2023-04-20T07:02:07.088Z,99.90
2023-04-20T07:04:34.035Z,99.90
2023-04-20T07:07:00.989Z,99.90
2023-04-20T07:09:28.069Z,99.90
2023-04-20T07:11:56.401Z,99.90
2023-04-20T07:14:23.359Z,99.90
2023-04-20T07:16:53.653Z,99.90
2023-04-20T07:19:20.684Z,99.90
2023-04-20T07:22:45.034Z,99.90
2023-04-20T07:25:11.886Z,99.90
2023-04-20T07:27:40.934Z,99.90
2023-04-20T07:30:09.042Z,99.90
2023-04-20T07:32:36.900Z,99.90
2023-04-20T07:35:04.483Z,99.90
2023-04-20T07:37:34.484Z,99.90
2023-04-20T07:40:01.539Z,99.90
2023-04-20T07:42:28.948Z,99.90
2023-04-20T07:44:55.743Z,99.90
2023-04-20T07:47:22.981Z,99.90
2023-04-20T07:49:49.909Z,99.90
2023-04-20T07:52:18.299Z,99.90
2023-04-20T07:54:46.063Z,99.90
2023-04-20T07:57:12.913Z,99.90
2023-04-20T07:59:40.821Z,99.90
2023-04-20T08:02:08.474Z,99.90
2023-04-20T08:04:38.347Z,99.90
2023-04-20T08:07:05.477Z,99.90
2023-04-20T08:09:32.273Z,99.90
2023-04-20T08:11:59.097Z,99.90
2023-04-20T08:14:26.161Z,99.90
2023-04-20T08:16:53.102Z,99.90
2023-04-20T08:19:19.946Z,99.90
2023-04-20T08:21:47.001Z,99.90
2023-04-20T08:24:14.126Z,99.90
2023-04-20T08:26:43.527Z,99.90
2023-04-20T08:29:10.546Z,99.90
2023-04-20T08:31:37.496Z,99.90
2023-04-20T08:34:06.478Z,99.90
2023-04-20T08:36:33.286Z,99.90
2023-04-20T08:39:11.974Z,99.90
2023-04-20T08:41:38.898Z,99.90
2023-04-20T08:44:07.351Z,99.90
2023-04-20T08:46:34.958Z,99.90
2023-04-20T08:49:05.135Z,99.90
2023-04-20T08:51:32.555Z,99.90
2023-04-20T08:54:06.503Z,99.90
2023-04-20T08:56:44.370Z,99.90
2023-04-20T08:59:12.866Z,99.90
2023-04-20T09:01:41.701Z,99.90
2023-04-20T09:04:20.361Z,99.90
2023-04-20T09:06:50.387Z,99.90
2023-04-20T09:09:18.758Z,99.90
2023-04-20T09:11:46.081Z,99.90
2023-04-20T09:14:15.023Z,99.90
2023-04-20T09:16:53.444Z,99.90
2023-04-20T09:19:24.757Z,99.90
2023-04-20T09:21:54.151Z,99.90
2023-04-20T09:24:22.714Z,99.90
2023-04-20T09:26:50.067Z,99.70
2023-04-20T09:29:21.730Z,99.90
2023-04-20T09:31:48.884Z,99.90
2023-04-20T09:34:16.137Z,99.90
2023-04-20T09:36:45.157Z,99.10
2023-04-20T09:39:23.273Z,99.20
2023-04-20T09:41:51.925Z,99.80
2023-04-20T09:44:19.994Z,99.90
2023-04-20T09:46:47.079Z,99.80
2023-04-20T09:49:15.183Z,99.70
2023-04-20T09:51:46.684Z,99.90
2023-04-20T09:54:15.113Z,99.50
2023-04-20T09:56:42.492Z,99.90
2023-04-20T09:59:09.179Z,99.70
2023-04-20T10:01:38.098Z,99.90
2023-04-20T10:04:09.751Z,99.50
2023-04-20T10:06:37.431Z,99.40
2023-04-20T10:09:06.257Z,99.20
2023-04-20T10:11:49.784Z,99.10
2023-04-20T10:14:25.047Z,99.50
2023-04-20T10:17:05.303Z,99.90
2023-04-20T10:19:42.124Z,99.40
2023-04-20T10:22:10.410Z,99.20
2023-04-20T10:24:40.560Z,99.50
2023-04-20T10:27:20.920Z,99.10
2023-04-20T10:29:47.971Z,99.20
2023-04-20T10:32:25.332Z,99.40
2023-04-20T10:35:06.495Z,99.20
2023-04-20T10:37:34.292Z,99.30
2023-04-20T10:40:01.932Z,98.80
2023-04-20T10:42:29.778Z,99.70
2023-04-20T10:44:56.682Z,99.90
2023-04-20T10:47:34.299Z,99.90
2023-04-20T10:50:12.156Z,99.90
2023-04-20T10:52:43.108Z,99.90
2023-04-20T10:55:26.303Z,99.90
2023-04-20T10:57:53.460Z,99.90
2023-04-20T11:00:28.153Z,99.90
2023-04-20T11:02:58.058Z,99.90
2023-04-20T11:05:30.356Z,99.90
2023-04-20T11:07:58.863Z,99.90
2023-04-20T11:10:40.726Z,99.90
2023-04-20T11:13:08.279Z,99.90
2023-04-20T11:15:35.515Z,99.90
2023-04-20T11:18:09.925Z,99.90
2023-04-20T11:20:37.102Z,99.90
2023-04-20T11:23:05.891Z,99.90
2023-04-20T11:25:32.652Z,99.90
2023-04-20T11:28:09.609Z,99.90
2023-04-20T11:30:42.693Z,99.90
2023-04-20T11:33:10.675Z,99.90
2023-04-20T11:35:38.721Z,99.90
2023-04-20T11:38:05.594Z,99.90
2023-04-20T11:40:32.410Z,99.90
2023-04-20T11:43:00.115Z,99.90
2023-04-20T11:45:28.052Z,99.90
2023-04-20T11:47:55.440Z,99.90
2023-04-20T11:50:22.981Z,99.90
2023-04-20T11:52:49.707Z,99.90
2023-04-20T11:55:16.521Z,99.90
2023-04-20T11:57:43.402Z,99.90
2023-04-20T12:00:10.635Z,99.90
2023-04-20T12:02:37.474Z,99.90
2023-04-20T12:05:04.745Z,99.90
2023-04-20T12:07:31.650Z,99.90
2023-04-20T12:09:58.333Z,99.90
2023-04-20T12:12:26.727Z,99.90
2023-04-20T12:14:53.449Z,99.90
2023-04-20T12:17:20.213Z,99.90
2023-04-20T12:19:47.834Z,99.90
2023-04-20T12:22:14.816Z,99.90
2023-04-20T12:24:41.554Z,99.90
2023-04-20T12:27:08.293Z,99.30
2023-04-20T12:29:35.126Z,99.90
2023-04-20T12:32:01.961Z,99.10
2023-04-20T12:34:28.859Z,99.60
2023-04-20T12:36:57.212Z,99.90
2023-04-20T12:39:24.390Z,99.10
2023-04-20T12:41:51.100Z,99.90
2023-04-20T12:44:18.119Z,99.90
2023-04-20T12:46:45.447Z,99.60
2023-04-20T12:49:12.299Z,99.90
2023-04-20T12:51:39.435Z,99.60
2023-04-20T12:54:06.137Z,98.10
2023-04-20T12:56:32.891Z,97.80
2023-04-20T12:58:59.767Z,98.90
2023-04-20T13:01:26.887Z,99.30
2023-04-20T13:03:54.012Z,98.60
2023-04-20T13:06:21.532Z,99.70
2023-04-20T13:08:48.818Z,99.90
2023-04-20T13:11:17.374Z,98.90
2023-04-20T13:13:44.227Z,99.50
2023-04-20T13:16:11.364Z,98.70
2023-04-20T13:18:38.432Z,99.60
2023-04-20T13:21:05.386Z,99.00
2023-04-20T13:23:32.147Z,98.80
2023-04-20T13:26:01.419Z,99.00
2023-04-20T13:28:28.278Z,98.50
2023-04-20T13:30:57.400Z,98.60
2023-04-20T13:33:24.259Z,99.60
2023-04-20T13:35:51.390Z,99.50
2023-04-20T13:38:18.380Z,98.80
2023-04-20T13:40:47.093Z,98.60
2023-04-20T13:43:13.932Z,97.60
2023-04-20T13:45:40.820Z,98.50
2023-04-20T13:48:07.592Z,98.50
2023-04-20T13:50:34.453Z,99.00
2023-04-20T13:53:03.164Z,98.50
2023-04-20T13:55:30.815Z,98.60
2023-04-20T13:57:57.640Z,99.30
2023-04-20T14:00:26.013Z,97.60
2023-04-20T14:02:52.954Z,98.10
2023-04-20T14:05:19.748Z,98.70
2023-04-20T14:07:46.517Z,99.90
2023-04-20T14:10:15.421Z,99.10
2023-04-20T14:12:42.255Z,99.90
2023-04-20T14:15:09.559Z,99.00
2023-04-20T14:17:36.444Z,99.30
2023-04-20T14:20:04.239Z,98.10
2023-04-20T14:22:35.810Z,98.40
2023-04-20T14:25:04.372Z,97.80
2023-04-20T14:27:31.409Z,97.70
2023-04-20T14:29:58.451Z,98.50
2023-04-20T14:32:25.313Z,97.50
2023-04-20T14:34:52.216Z,98.00
2023-04-20T14:37:19.135Z,97.10
2023-04-20T14:39:45.839Z,99.10
2023-04-20T14:42:13.375Z,97.60
2023-04-20T14:44:40.147Z,98.90
2023-04-20T14:47:06.951Z,98.90
2023-04-20T14:49:33.795Z,96.80
2023-04-20T14:52:00.520Z,98.30
2023-04-20T14:54:29.595Z,97.40
2023-04-20T14:56:56.431Z,97.20
2023-04-20T14:59:24.562Z,96.40
2023-04-20T15:02:01.607Z,97.40
2023-04-20T15:04:29.730Z,97.30
2023-04-20T15:06:56.649Z,97.10
2023-04-20T15:09:23.371Z,97.80
2023-04-20T15:11:50.219Z,97.80
2023-04-20T15:14:17.260Z,98.50
2023-04-20T15:16:44.326Z,98.20
2023-04-20T15:19:11.120Z,98.60
2023-04-20T15:21:37.954Z,98.70
2023-04-20T15:24:04.950Z,98.70
2023-04-20T15:26:31.745Z,98.80
2023-04-20T15:28:58.572Z,99.10
2023-04-20T15:31:25.814Z,98.90
2023-04-20T15:33:52.649Z,99.20
2023-04-20T15:36:20.521Z,99.10
2023-04-20T15:38:47.332Z,99.10
2023-04-20T15:41:16.240Z,99.50
2023-04-20T15:43:43.725Z,99.40
2023-04-20T15:46:11.048Z,99.30
2023-04-20T15:48:37.989Z,99.60
2023-04-20T15:51:05.119Z,99.90
2023-04-20T15:53:35.235Z,99.90
2023-04-20T15:56:02.094Z,99.90
2023-04-20T15:58:28.754Z,99.90
2023-04-20T16:00:55.458Z,99.90
2023-04-20T16:03:22.265Z,99.90
2023-04-20T16:05:49.055Z,99.90
2023-04-20T16:08:18.829Z,99.90
2023-04-20T16:10:45.615Z,99.90
2023-04-20T16:13:12.489Z,99.90
2023-04-20T16:15:39.334Z,99.90
2023-04-20T16:18:06.404Z,99.90
2023-04-20T16:20:33.073Z,99.90
2023-04-20T16:22:59.788Z,99.90
2023-04-20T16:25:27.152Z,99.90
2023-04-20T16:27:54.461Z,99.90
2023-04-20T16:30:21.264Z,99.90
2023-04-20T16:32:48.162Z,99.90
2023-04-20T16:35:14.888Z,99.90
2023-04-20T16:37:41.869Z,99.90
2023-04-20T16:40:11.975Z,99.90
2023-04-20T16:42:38.671Z,99.90
2023-04-20T16:45:05.943Z,99.90
2023-04-20T16:47:33.360Z,99.90
2023-04-20T16:50:00.209Z,99.90
2023-04-20T16:52:27.038Z,99.90
2023-04-20T16:54:53.729Z,99.90
2023-04-20T16:57:21.233Z,99.90
2023-04-20T16:59:47.995Z,99.90
2023-04-20T17:02:14.820Z,99.90
2023-04-20T17:04:41.598Z,99.90
2023-04-20T17:07:08.383Z,99.90
2023-04-20T17:09:35.470Z,99.90
2023-04-20T17:12:02.303Z,99.90
2023-04-20T17:14:30.249Z,99.90
2023-04-20T17:16:57.302Z,99.90
2023-04-20T17:19:24.170Z,99.90
2023-04-20T17:21:50.918Z,99.90
2023-04-20T17:24:17.910Z,99.90
2023-04-20T17:26:46.451Z,99.90
2023-04-20T17:29:13.690Z,99.90
2023-04-20T17:31:40.486Z,99.90
2023-04-20T17:34:07.369Z,99.90
2023-04-20T17:36:34.360Z,99.90
2023-04-20T17:39:01.223Z,99.90
2023-04-20T17:41:28.292Z,99.90
2023-04-20T17:43:55.064Z,99.90
2023-04-20T17:46:23.094Z,99.90
2023-04-20T17:48:49.937Z,99.90
2023-04-20T17:51:16.823Z,99.90
2023-04-20T17:53:43.714Z,99.90
2023-04-20T17:56:11.437Z,99.90
2023-04-20T17:58:38.194Z,99.90
2023-04-20T18:01:05.314Z,99.90
2023-04-20T18:03:32.363Z,99.90
2023-04-20T18:05:59.279Z,99.90
2023-04-20T18:08:26.005Z,99.90
2023-04-20T18:10:52.642Z,99.90
2023-04-20T18:13:19.337Z,99.90
2023-04-20T18:15:46.269Z,99.90
2023-04-20T18:18:13.032Z,99.90
2023-04-20T18:20:40.456Z,99.90
2023-04-20T18:23:07.497Z,99.90
2023-04-20T18:25:34.292Z,99.90
2023-04-20T18:28:00.989Z,99.90
2023-04-20T18:30:27.727Z,99.90
2023-04-20T18:32:54.606Z,99.90
2023-04-20T18:35:21.511Z,99.90
2023-04-20T18:37:48.217Z,99.90
2023-04-20T18:40:16.448Z,99.90
2023-04-20T18:42:43.580Z,99.90
2023-04-20T18:45:12.276Z,99.90
2023-04-20T18:47:39.368Z,99.90
2023-04-20T18:50:06.723Z,99.90
2023-04-20T18:52:34.097Z,99.90
2023-04-20T18:55:01.426Z,99.90
2023-04-20T18:57:28.918Z,99.90
2023-04-20T18:59:56.498Z,99.90
2023-04-20T19:02:23.520Z,99.90
2023-04-20T19:04:53.246Z,99.90
2023-04-20T19:07:20.805Z,99.90
2023-04-20T19:09:47.502Z,99.90
2023-04-20T19:12:14.224Z,99.90
2023-04-20T19:14:41.002Z,99.90
2023-04-20T19:17:08.143Z,99.90
2023-04-20T19:19:35.025Z,99.90
2023-04-20T19:22:03.519Z,99.90
2023-04-20T19:24:32.141Z,99.90
2023-04-20T19:26:59.341Z,99.90
2023-04-20T19:29:26.094Z,99.90
2023-04-20T19:31:52.854Z,99.90
2023-04-20T19:34:20.623Z,99.90
2023-04-20T19:36:47.571Z,99.90
2023-04-20T19:39:14.313Z,99.90
2023-04-20T19:41:41.062Z,99.90
2023-04-20T19:44:09.887Z,99.90
2023-04-20T19:46:38.525Z,99.90
2023-04-20T19:49:05.631Z,99.90
2023-04-20T19:51:32.991Z,99.90
2023-04-20T19:54:01.026Z,99.90
2023-04-20T19:56:27.949Z,99.90
2023-04-20T19:58:54.625Z,99.90
2023-04-20T20:01:21.428Z,99.90
2023-04-20T20:03:48.457Z,99.90
2023-04-20T20:06:15.782Z,99.90
2023-04-20T20:08:42.748Z,99.90
2023-04-20T20:11:09.558Z,99.90
2023-04-20T20:13:36.297Z,99.90
2023-04-20T20:16:04.115Z,99.90
2023-04-20T20:18:31.147Z,99.90
2023-04-20T20:20:57.989Z,99.90
2023-04-20T20:23:24.755Z,99.90
2023-04-20T20:25:51.958Z,99.90
2023-04-20T20:28:18.746Z,99.90
2023-04-20T20:30:45.726Z,99.90
2023-04-20T20:33:12.864Z,99.90
2023-04-20T20:35:39.979Z,99.90
2023-04-20T20:38:07.826Z,99.90
2023-04-20T20:40:35.606Z,99.90
2023-04-20T20:43:03.693Z,99.90
2023-04-20T20:45:31.790Z,99.90
2023-04-20T20:47:59.040Z,99.90
2023-04-20T20:50:27.914Z,99.90
2023-04-20T20:52:54.754Z,99.90
2023-04-20T20:55:21.604Z,99.90
2023-04-20T20:57:48.372Z,99.90
2023-04-20T21:00:16.149Z,99.90
2023-04-20T21:02:43.152Z,99.90
2023-04-20T21:05:10.517Z,99.90
2023-04-20T21:07:37.400Z,99.90
2023-04-20T21:10:04.555Z,99.90
2023-04-20T21:12:31.328Z,99.90
2023-04-20T21:14:58.052Z,99.90
2023-04-20T21:17:25.935Z,99.90
2023-04-20T21:19:52.699Z,99.90
2023-04-20T21:22:21.293Z,99.90
2023-04-20T21:24:48.254Z,99.90
2023-04-20T21:27:15.018Z,99.90
2023-04-20T21:29:41.799Z,99.90
2023-04-20T21:32:09.763Z,99.90
2023-04-20T21:34:36.532Z,99.90
2023-04-20T21:37:06.129Z,99.90
2023-04-20T21:39:33.158Z,99.90
2023-04-20T21:42:00.475Z,99.90
2023-04-20T21:44:27.468Z,99.90
2023-04-20T21:46:54.283Z,99.90
2023-04-20T21:49:21.198Z,99.90
2023-04-20T21:51:47.957Z,99.90
2023-04-20T21:54:14.942Z,99.90
2023-04-20T21:56:41.817Z,99.90
2023-04-20T21:59:08.603Z,99.90
2023-04-20T22:01:35.634Z,99.90
2023-04-20T22:04:02.610Z,99.90
2023-04-20T22:06:29.619Z,99.90
2023-04-20T22:08:56.557Z,99.90
2023-04-20T22:11:23.426Z,99.90
2023-04-20T22:13:50.547Z,99.90
2023-04-20T22:16:18.017Z,99.90
2023-04-20T22:18:44.773Z,99.90
2023-04-20T22:21:11.525Z,99.90
2023-04-20T22:23:38.216Z,99.90
2023-04-20T22:26:05.144Z,99.90
2023-04-20T22:28:32.242Z,99.90
2023-04-20T22:30:58.973Z,99.90
2023-04-20T22:33:25.743Z,99.90
2023-04-20T22:35:52.835Z,99.90
2023-04-20T22:38:20.079Z,99.90
2023-04-20T22:40:46.814Z,99.90
2023-04-20T22:43:13.741Z,99.90
2023-04-20T22:45:40.765Z,99.90
2023-04-20T22:48:07.758Z,99.90
2023-04-20T22:50:35.192Z,99.90
2023-04-20T22:53:01.932Z,99.90
2023-04-20T22:55:28.660Z,99.90
2023-04-20T22:57:55.468Z,99.90
2023-04-20T23:00:22.278Z,99.90
2023-04-20T23:02:49.618Z,99.90
2023-04-20T23:05:21.065Z,99.90
2023-04-20T23:07:47.994Z,99.90
2023-04-20T23:10:17.664Z,99.90
2023-04-20T23:12:47.184Z,99.90
2023-04-20T23:15:14.102Z,99.90
2023-04-20T23:17:40.901Z,99.90
2023-04-20T23:20:13.673Z,99.90
2023-04-20T23:22:40.743Z,99.90
2023-04-20T23:25:09.529Z,99.90
2023-04-20T23:27:36.310Z,99.90
2023-04-20T23:30:03.160Z,99.90
2023-04-20T23:32:29.958Z,99.90
2023-04-20T23:34:56.711Z,99.90
2023-04-20T23:37:23.438Z,99.90
2023-04-20T23:39:50.166Z,99.90
2023-04-20T23:42:16.896Z,99.90
2023-04-20T23:44:43.613Z,99.90
2023-04-20T23:47:10.403Z,99.90
2023-04-20T23:49:37.155Z,99.90
2023-04-20T23:52:03.950Z,99.90
2023-04-20T23:54:32.618Z,99.90
2023-04-20T23:57:00.035Z,99.90
2023-04-20T23:59:26.846Z,99.90
